sensor_id;sensor_type;location;lat;lon;timestamp;temperature;humidity
65038;DHT22;51605;47.040;15.294;2022-12-24T00:01:12;20.60;59.10
65038;DHT22;51605;47.040;15.294;2022-12-24T00:03:37;20.60;59.10
65038;DHT22;51605;47.040;15.294;2022-12-24T00:06:07;20.60;59.10
65038;DHT22;51605;47.040;15.294;2022-12-24T00:08:33;20.60;59.10
65038;DHT22;51605;47.040;15.294;2022-12-24T00:10:59;20.60;59.10
65038;DHT22;51605;47.040;15.294;2022-12-24T00:13:25;20.60;59.10
65038;DHT22;51605;47.040;15.294;2022-12-24T00:15:50;20.60;59.10
65038;DHT22;51605;47.040;15.294;2022-12-24T00:18:16;20.60;59.10
65038;DHT22;51605;47.040;15.294;2022-12-24T00:20:46;20.60;59.00
65038;DHT22;51605;47.040;15.294;2022-12-24T00:23:12;20.60;59.00
65038;DHT22;51605;47.040;15.294;2022-12-24T00:25:38;20.60;59.00
65038;DHT22;51605;47.040;15.294;2022-12-24T00:28:03;20.60;59.00
65038;DHT22;51605;47.040;15.294;2022-12-24T00:30:29;20.60;59.10
65038;DHT22;51605;47.040;15.294;2022-12-24T00:32:55;20.50;59.00
65038;DHT22;51605;47.040;15.294;2022-12-24T00:35:20;20.60;59.10
65038;DHT22;51605;47.040;15.294;2022-12-24T00:37:47;20.60;59.00
65038;DHT22;51605;47.040;15.294;2022-12-24T00:40:14;20.60;59.90
65038;DHT22;51605;47.040;15.294;2022-12-24T00:42:40;20.60;58.90
65038;DHT22;51605;47.040;15.294;2022-12-24T00:45:06;20.60;58.90
65038;DHT22;51605;47.040;15.294;2022-12-24T00:47:31;20.60;58.90
65038;DHT22;51605;47.040;15.294;2022-12-24T00:49:57;20.60;58.90
65038;DHT22;51605;47.040;15.294;2022-12-24T00:52:22;20.60;59.00
65038;DHT22;51605;47.040;15.294;2022-12-24T00:54:48;20.60;58.90
65038;DHT22;51605;47.040;15.294;2022-12-24T00:57:14;20.60;59.00
65038;DHT22;51605;47.040;15.294;2022-12-24T00:59:39;20.60;58.90
65038;DHT22;51605;47.040;15.294;2022-12-24T01:02:05;20.60;58.90
65038;DHT22;51605;47.040;15.294;2022-12-24T01:04:30;20.60;58.90
65038;DHT22;51605;47.040;15.294;2022-12-24T01:07:14;20.60;58.80
65038;DHT22;51605;47.040;15.294;2022-12-24T01:09:40;20.60;59.80
65038;DHT22;51605;47.040;15.294;2022-12-24T01:12:06;20.60;58.90
65038;DHT22;51605;47.040;15.294;2022-12-24T01:14:31;20.60;58.90
65038;DHT22;51605;47.040;15.294;2022-12-24T01:16:57;20.60;58.80
65038;DHT22;51605;47.040;15.294;2022-12-24T01:19:23;20.60;58.90
65038;DHT22;51605;47.040;15.294;2022-12-24T01:21:48;20.60;58.80
65038;DHT22;51605;47.040;15.294;2022-12-24T01:24:14;20.60;58.90
65038;DHT22;51605;47.040;15.294;2022-12-24T01:26:41;20.60;58.90
65038;DHT22;51605;47.040;15.294;2022-12-24T01:29:07;20.60;58.80
65038;DHT22;51605;47.040;15.294;2022-12-24T01:31:33;20.60;58.90
65038;DHT22;51605;47.040;15.294;2022-12-24T01:33:58;20.60;58.80
65038;DHT22;51605;47.040;15.294;2022-12-24T01:36:24;20.60;58.90
65038;DHT22;51605;47.040;15.294;2022-12-24T01:38:50;20.60;58.80
65038;DHT22;51605;47.040;15.294;2022-12-24T01:41:17;20.60;58.80
65038;DHT22;51605;47.040;15.294;2022-12-24T01:44:18;20.60;58.80
65038;DHT22;51605;47.040;15.294;2022-12-24T01:46:44;20.60;58.80
65038;DHT22;51605;47.040;15.294;2022-12-24T01:49:13;20.60;58.80
65038;DHT22;51605;47.040;15.294;2022-12-24T01:51:46;20.60;58.80
65038;DHT22;51605;47.040;15.294;2022-12-24T01:54:27;20.60;58.80
65038;DHT22;51605;47.040;15.294;2022-12-24T01:56:59;20.60;58.80
65038;DHT22;51605;47.040;15.294;2022-12-24T01:59:26;20.60;58.80
65038;DHT22;51605;47.040;15.294;2022-12-24T02:01:53;20.60;58.80
65038;DHT22;51605;47.040;15.294;2022-12-24T02:06:50;20.60;58.80
65038;DHT22;51605;47.040;15.294;2022-12-24T02:09:16;20.60;58.80
65038;DHT22;51605;47.040;15.294;2022-12-24T02:11:43;20.60;58.90
65038;DHT22;51605;47.040;15.294;2022-12-24T02:14:09;20.60;58.80
65038;DHT22;51605;47.040;15.294;2022-12-24T02:16:48;20.60;58.80
65038;DHT22;51605;47.040;15.294;2022-12-24T02:30:21;20.60;58.80
65038;DHT22;51605;47.040;15.294;2022-12-24T02:33:02;20.60;58.80
65038;DHT22;51605;47.040;15.294;2022-12-24T02:36:05;20.50;58.70
65038;DHT22;51605;47.040;15.294;2022-12-24T02:38:49;20.60;58.80
65038;DHT22;51605;47.040;15.294;2022-12-24T02:41:22;20.50;58.80
65038;DHT22;51605;47.040;15.294;2022-12-24T02:43:50;20.60;58.80
65038;DHT22;51605;47.040;15.294;2022-12-24T02:46:28;20.60;58.70
65038;DHT22;51605;47.040;15.294;2022-12-24T02:48:58;20.60;58.70
65038;DHT22;51605;47.040;15.294;2022-12-24T02:51:24;20.60;58.70
65038;DHT22;51605;47.040;15.294;2022-12-24T02:53:50;20.60;59.10
65038;DHT22;51605;47.040;15.294;2022-12-24T03:01:40;20.60;59.60
65038;DHT22;51605;47.040;15.294;2022-12-24T03:04:24;20.60;58.70
65038;DHT22;51605;47.040;15.294;2022-12-24T03:12:47;20.60;58.60
65038;DHT22;51605;47.040;15.294;2022-12-24T03:15:17;20.60;58.70
65038;DHT22;51605;47.040;15.294;2022-12-24T03:17:46;20.60;58.60
65038;DHT22;51605;47.040;15.294;2022-12-24T03:20:16;20.60;58.60
65038;DHT22;51605;47.040;15.294;2022-12-24T03:22:43;20.60;58.60
65038;DHT22;51605;47.040;15.294;2022-12-24T03:25:08;20.60;58.50
65038;DHT22;51605;47.040;15.294;2022-12-24T03:27:34;20.60;58.60
65038;DHT22;51605;47.040;15.294;2022-12-24T03:30:08;20.60;58.60
65038;DHT22;51605;47.040;15.294;2022-12-24T03:32:34;20.60;58.50
65038;DHT22;51605;47.040;15.294;2022-12-24T03:35:00;20.60;59.00
65038;DHT22;51605;47.040;15.294;2022-12-24T03:37:26;20.60;58.50
65038;DHT22;51605;47.040;15.294;2022-12-24T03:39:52;20.60;58.60
65038;DHT22;51605;47.040;15.294;2022-12-24T03:42:18;20.60;58.50
65038;DHT22;51605;47.040;15.294;2022-12-24T03:44:43;20.60;58.60
65038;DHT22;51605;47.040;15.294;2022-12-24T03:47:09;20.60;58.50
65038;DHT22;51605;47.040;15.294;2022-12-24T03:49:35;20.60;58.40
65038;DHT22;51605;47.040;15.294;2022-12-24T03:52:00;20.60;58.40
65038;DHT22;51605;47.040;15.294;2022-12-24T03:54:26;20.70;58.40
65038;DHT22;51605;47.040;15.294;2022-12-24T03:56:52;20.70;58.40
65038;DHT22;51605;47.040;15.294;2022-12-24T03:59:17;20.70;58.40
65038;DHT22;51605;47.040;15.294;2022-12-24T04:01:43;20.60;58.40
65038;DHT22;51605;47.040;15.294;2022-12-24T04:04:08;20.60;58.50
65038;DHT22;51605;47.040;15.294;2022-12-24T04:06:34;20.60;58.40
65038;DHT22;51605;47.040;15.294;2022-12-24T04:09:00;20.70;58.50
65038;DHT22;51605;47.040;15.294;2022-12-24T04:11:30;20.70;58.50
65038;DHT22;51605;47.040;15.294;2022-12-24T04:13:55;20.60;58.40
65038;DHT22;51605;47.040;15.294;2022-12-24T04:16:21;20.60;58.30
65038;DHT22;51605;47.040;15.294;2022-12-24T04:18:47;20.60;58.40
65038;DHT22;51605;47.040;15.294;2022-12-24T04:21:12;20.60;58.40
65038;DHT22;51605;47.040;15.294;2022-12-24T04:23:39;20.60;58.40
65038;DHT22;51605;47.040;15.294;2022-12-24T04:26:07;20.60;58.40
65038;DHT22;51605;47.040;15.294;2022-12-24T04:28:34;20.60;58.30
65038;DHT22;51605;47.040;15.294;2022-12-24T04:31:01;20.60;58.30
65038;DHT22;51605;47.040;15.294;2022-12-24T04:33:27;20.60;58.30
65038;DHT22;51605;47.040;15.294;2022-12-24T04:35:52;20.70;58.30
65038;DHT22;51605;47.040;15.294;2022-12-24T04:38:19;20.60;58.30
65038;DHT22;51605;47.040;15.294;2022-12-24T04:40:44;20.60;58.30
65038;DHT22;51605;47.040;15.294;2022-12-24T04:43:10;20.60;58.30
65038;DHT22;51605;47.040;15.294;2022-12-24T04:45:35;20.60;58.30
65038;DHT22;51605;47.040;15.294;2022-12-24T04:48:04;20.60;58.30
65038;DHT22;51605;47.040;15.294;2022-12-24T04:50:30;20.60;58.30
65038;DHT22;51605;47.040;15.294;2022-12-24T04:52:56;20.60;58.30
65038;DHT22;51605;47.040;15.294;2022-12-24T04:55:21;20.60;58.30
65038;DHT22;51605;47.040;15.294;2022-12-24T04:57:47;20.60;58.30
65038;DHT22;51605;47.040;15.294;2022-12-24T05:00:13;20.60;58.20
65038;DHT22;51605;47.040;15.294;2022-12-24T05:02:38;20.60;58.20
65038;DHT22;51605;47.040;15.294;2022-12-24T05:05:04;20.70;58.20
65038;DHT22;51605;47.040;15.294;2022-12-24T05:07:30;20.70;59.20
65038;DHT22;51605;47.040;15.294;2022-12-24T05:09:56;20.70;58.20
65038;DHT22;51605;47.040;15.294;2022-12-24T05:12:21;20.70;58.20
65038;DHT22;51605;47.040;15.294;2022-12-24T05:14:47;20.60;58.20
65038;DHT22;51605;47.040;15.294;2022-12-24T05:17:13;20.60;58.20
65038;DHT22;51605;47.040;15.294;2022-12-24T05:19:39;20.60;58.20
65038;DHT22;51605;47.040;15.294;2022-12-24T05:22:04;20.70;58.20
65038;DHT22;51605;47.040;15.294;2022-12-24T05:24:50;20.70;58.30
65038;DHT22;51605;47.040;15.294;2022-12-24T05:27:34;20.60;58.20
65038;DHT22;51605;47.040;15.294;2022-12-24T05:30:00;20.70;58.20
65038;DHT22;51605;47.040;15.294;2022-12-24T05:32:26;20.60;58.40
65038;DHT22;51605;47.040;15.294;2022-12-24T05:34:53;20.60;58.20
65038;DHT22;51605;47.040;15.294;2022-12-24T05:37:18;20.60;58.20
65038;DHT22;51605;47.040;15.294;2022-12-24T05:39:44;20.70;58.20
65038;DHT22;51605;47.040;15.294;2022-12-24T05:42:09;20.70;58.20
65038;DHT22;51605;47.040;15.294;2022-12-24T05:44:35;20.60;58.20
65038;DHT22;51605;47.040;15.294;2022-12-24T05:47:01;20.60;58.20
65038;DHT22;51605;47.040;15.294;2022-12-24T05:49:27;20.60;58.20
65038;DHT22;51605;47.040;15.294;2022-12-24T05:51:53;20.60;58.20
65038;DHT22;51605;47.040;15.294;2022-12-24T05:54:19;20.60;58.20
65038;DHT22;51605;47.040;15.294;2022-12-24T05:56:44;20.60;58.20
65038;DHT22;51605;47.040;15.294;2022-12-24T05:59:10;20.60;58.20
65038;DHT22;51605;47.040;15.294;2022-12-24T06:01:35;20.60;58.10
65038;DHT22;51605;47.040;15.294;2022-12-24T06:04:01;20.60;58.10
65038;DHT22;51605;47.040;15.294;2022-12-24T06:06:27;20.70;58.10
65038;DHT22;51605;47.040;15.294;2022-12-24T06:08:54;20.70;58.10
65038;DHT22;51605;47.040;15.294;2022-12-24T06:11:24;20.60;58.10
65038;DHT22;51605;47.040;15.294;2022-12-24T06:13:50;20.60;58.00
65038;DHT22;51605;47.040;15.294;2022-12-24T06:16:18;20.60;58.00
65038;DHT22;51605;47.040;15.294;2022-12-24T06:18:44;20.70;58.10
65038;DHT22;51605;47.040;15.294;2022-12-24T06:21:10;20.70;58.00
65038;DHT22;51605;47.040;15.294;2022-12-24T06:23:39;20.70;58.00
65038;DHT22;51605;47.040;15.294;2022-12-24T06:26:06;20.70;58.10
65038;DHT22;51605;47.040;15.294;2022-12-24T06:28:33;20.60;58.10
65038;DHT22;51605;47.040;15.294;2022-12-24T06:30:59;20.70;58.10
65038;DHT22;51605;47.040;15.294;2022-12-24T06:33:29;20.70;57.90
65038;DHT22;51605;47.040;15.294;2022-12-24T06:35:54;20.70;57.70
65038;DHT22;51605;47.040;15.294;2022-12-24T06:38:20;20.60;57.70
65038;DHT22;51605;47.040;15.294;2022-12-24T06:40:46;20.60;57.60
65038;DHT22;51605;47.040;15.294;2022-12-24T06:43:13;20.60;57.80
65038;DHT22;51605;47.040;15.294;2022-12-24T06:45:39;20.60;57.50
65038;DHT22;51605;47.040;15.294;2022-12-24T06:48:05;20.60;57.40
65038;DHT22;51605;47.040;15.294;2022-12-24T06:50:32;20.50;57.20
65038;DHT22;51605;47.040;15.294;2022-12-24T06:52:58;20.50;57.20
65038;DHT22;51605;47.040;15.294;2022-12-24T06:55:24;20.50;56.80
65038;DHT22;51605;47.040;15.294;2022-12-24T06:57:49;20.50;56.60
65038;DHT22;51605;47.040;15.294;2022-12-24T07:00:15;20.50;56.30
65038;DHT22;51605;47.040;15.294;2022-12-24T07:02:43;20.50;55.80
65038;DHT22;51605;47.040;15.294;2022-12-24T07:05:09;20.60;55.70
65038;DHT22;51605;47.040;15.294;2022-12-24T07:07:40;20.50;55.60
65038;DHT22;51605;47.040;15.294;2022-12-24T07:10:07;20.60;55.60
65038;DHT22;51605;47.040;15.294;2022-12-24T07:12:33;20.60;55.70
65038;DHT22;51605;47.040;15.294;2022-12-24T07:14:58;20.60;55.80
65038;DHT22;51605;47.040;15.294;2022-12-24T07:17:24;20.60;56.10
65038;DHT22;51605;47.040;15.294;2022-12-24T07:19:50;20.60;56.20
65038;DHT22;51605;47.040;15.294;2022-12-24T07:22:15;20.60;56.20
65038;DHT22;51605;47.040;15.294;2022-12-24T07:24:41;20.60;56.20
65038;DHT22;51605;47.040;15.294;2022-12-24T07:27:07;20.60;56.40
65038;DHT22;51605;47.040;15.294;2022-12-24T07:29:33;20.60;56.40
65038;DHT22;51605;47.040;15.294;2022-12-24T07:31:59;20.60;56.50
65038;DHT22;51605;47.040;15.294;2022-12-24T07:34:25;20.60;56.60
65038;DHT22;51605;47.040;15.294;2022-12-24T07:36:50;20.60;56.70
65038;DHT22;51605;47.040;15.294;2022-12-24T07:39:16;20.60;56.70
65038;DHT22;51605;47.040;15.294;2022-12-24T07:41:42;20.50;57.00
65038;DHT22;51605;47.040;15.294;2022-12-24T07:44:13;20.60;57.90
65038;DHT22;51605;47.040;15.294;2022-12-24T07:46:39;20.50;58.80
65038;DHT22;51605;47.040;15.294;2022-12-24T07:49:05;20.50;58.40
65038;DHT22;51605;47.040;15.294;2022-12-24T07:51:30;20.50;58.80
65038;DHT22;51605;47.040;15.294;2022-12-24T07:53:56;20.50;59.10
65038;DHT22;51605;47.040;15.294;2022-12-24T07:56:22;20.50;59.10
65038;DHT22;51605;47.040;15.294;2022-12-24T07:58:49;20.50;59.40
65038;DHT22;51605;47.040;15.294;2022-12-24T08:01:15;20.60;58.90
65038;DHT22;51605;47.040;15.294;2022-12-24T08:03:40;20.60;58.20
65038;DHT22;51605;47.040;15.294;2022-12-24T08:06:06;20.60;57.90
65038;DHT22;51605;47.040;15.294;2022-12-24T08:08:32;20.60;57.90
65038;DHT22;51605;47.040;15.294;2022-12-24T08:11:02;20.60;57.80
65038;DHT22;51605;47.040;15.294;2022-12-24T08:13:28;20.60;58.00
65038;DHT22;51605;47.040;15.294;2022-12-24T08:15:54;20.60;57.70
65038;DHT22;51605;47.040;15.294;2022-12-24T08:18:20;20.60;57.40
65038;DHT22;51605;47.040;15.294;2022-12-24T08:20:46;20.60;57.10
65038;DHT22;51605;47.040;15.294;2022-12-24T08:23:14;20.60;57.00
65038;DHT22;51605;47.040;15.294;2022-12-24T08:25:44;20.60;57.00
65038;DHT22;51605;47.040;15.294;2022-12-24T08:28:12;20.70;56.90
65038;DHT22;51605;47.040;15.294;2022-12-24T08:30:37;20.60;57.00
65038;DHT22;51605;47.040;15.294;2022-12-24T08:33:03;20.70;57.00
65038;DHT22;51605;47.040;15.294;2022-12-24T08:35:29;20.70;57.00
65038;DHT22;51605;47.040;15.294;2022-12-24T08:37:55;20.70;57.90
65038;DHT22;51605;47.040;15.294;2022-12-24T08:40:21;20.70;57.90
65038;DHT22;51605;47.040;15.294;2022-12-24T08:42:47;20.60;57.50
65038;DHT22;51605;47.040;15.294;2022-12-24T08:45:14;20.60;57.40
65038;DHT22;51605;47.040;15.294;2022-12-24T08:47:40;20.60;57.50
65038;DHT22;51605;47.040;15.294;2022-12-24T08:50:06;20.60;57.40
65038;DHT22;51605;47.040;15.294;2022-12-24T08:52:32;20.70;57.50
65038;DHT22;51605;47.040;15.294;2022-12-24T08:54:58;20.60;57.40
65038;DHT22;51605;47.040;15.294;2022-12-24T08:57:23;20.60;57.40
65038;DHT22;51605;47.040;15.294;2022-12-24T08:59:49;20.60;57.40
65038;DHT22;51605;47.040;15.294;2022-12-24T09:02:15;20.70;57.50
65038;DHT22;51605;47.040;15.294;2022-12-24T09:04:43;20.70;57.50
65038;DHT22;51605;47.040;15.294;2022-12-24T09:07:12;20.60;58.30
65038;DHT22;51605;47.040;15.294;2022-12-24T09:09:37;20.60;57.50
65038;DHT22;51605;47.040;15.294;2022-12-24T09:12:04;20.60;57.50
65038;DHT22;51605;47.040;15.294;2022-12-24T09:14:30;20.60;57.60
65038;DHT22;51605;47.040;15.294;2022-12-24T09:16:56;20.60;57.60
65038;DHT22;51605;47.040;15.294;2022-12-24T09:19:22;20.60;57.50
65038;DHT22;51605;47.040;15.294;2022-12-24T09:21:47;20.60;57.70
65038;DHT22;51605;47.040;15.294;2022-12-24T09:24:14;20.70;57.60
65038;DHT22;51605;47.040;15.294;2022-12-24T09:26:40;20.60;57.50
65038;DHT22;51605;47.040;15.294;2022-12-24T09:29:06;20.60;57.60
65038;DHT22;51605;47.040;15.294;2022-12-24T09:31:32;20.60;57.60
65038;DHT22;51605;47.040;15.294;2022-12-24T09:33:58;20.60;57.60
65038;DHT22;51605;47.040;15.294;2022-12-24T09:36:24;20.60;57.60
65038;DHT22;51605;47.040;15.294;2022-12-24T09:38:50;20.60;57.60
65038;DHT22;51605;47.040;15.294;2022-12-24T09:44:00;20.60;57.70
65038;DHT22;51605;47.040;15.294;2022-12-24T09:46:40;20.60;57.80
65038;DHT22;51605;47.040;15.294;2022-12-24T09:49:13;20.60;57.80
65038;DHT22;51605;47.040;15.294;2022-12-24T09:51:51;20.60;57.80
65038;DHT22;51605;47.040;15.294;2022-12-24T09:54:35;20.60;57.80
65038;DHT22;51605;47.040;15.294;2022-12-24T09:57:12;20.60;57.80
65038;DHT22;51605;47.040;15.294;2022-12-24T09:59:44;20.60;57.80
65038;DHT22;51605;47.040;15.294;2022-12-24T10:02:14;20.60;57.80
65038;DHT22;51605;47.040;15.294;2022-12-24T10:04:41;20.60;57.90
65038;DHT22;51605;47.040;15.294;2022-12-24T10:10:08;20.60;57.90
65038;DHT22;51605;47.040;15.294;2022-12-24T10:12:54;20.60;57.90
65038;DHT22;51605;47.040;15.294;2022-12-24T10:18:01;20.60;57.80
65038;DHT22;51605;47.040;15.294;2022-12-24T10:20:41;20.60;57.90
65038;DHT22;51605;47.040;15.294;2022-12-24T10:23:28;20.60;57.90
65038;DHT22;51605;47.040;15.294;2022-12-24T10:29:02;20.60;57.90
65038;DHT22;51605;47.040;15.294;2022-12-24T10:31:40;20.60;57.90
65038;DHT22;51605;47.040;15.294;2022-12-24T10:34:21;20.60;58.00
65038;DHT22;51605;47.040;15.294;2022-12-24T10:36:47;20.60;57.90
65038;DHT22;51605;47.040;15.294;2022-12-24T10:39:24;20.60;58.00
65038;DHT22;51605;47.040;15.294;2022-12-24T10:41:52;20.60;58.00
65038;DHT22;51605;47.040;15.294;2022-12-24T10:44:22;20.60;58.00
65038;DHT22;51605;47.040;15.294;2022-12-24T10:46:48;20.60;58.20
65038;DHT22;51605;47.040;15.294;2022-12-24T10:49:32;20.60;58.10
65038;DHT22;51605;47.040;15.294;2022-12-24T10:52:07;20.60;58.20
65038;DHT22;51605;47.040;15.294;2022-12-24T10:54:34;20.60;58.20
65038;DHT22;51605;47.040;15.294;2022-12-24T10:57:05;20.60;58.00
65038;DHT22;51605;47.040;15.294;2022-12-24T11:02:32;20.60;58.10
65038;DHT22;51605;47.040;15.294;2022-12-24T11:04:59;20.60;58.20
65038;DHT22;51605;47.040;15.294;2022-12-24T11:07:25;20.60;58.10
65038;DHT22;51605;47.040;15.294;2022-12-24T11:10:00;20.60;58.10
65038;DHT22;51605;47.040;15.294;2022-12-24T11:12:29;20.60;58.20
65038;DHT22;51605;47.040;15.294;2022-12-24T11:15:16;20.60;58.20
65038;DHT22;51605;47.040;15.294;2022-12-24T11:18:35;20.60;59.00
65038;DHT22;51605;47.040;15.294;2022-12-24T11:20:48;20.60;58.50
65038;DHT22;51605;47.040;15.294;2022-12-24T11:23:16;20.60;58.30
65038;DHT22;51605;47.040;15.294;2022-12-24T11:25:46;20.60;58.30
65038;DHT22;51605;47.040;15.294;2022-12-24T11:28:33;20.60;58.30
65038;DHT22;51605;47.040;15.294;2022-12-24T11:31:02;20.60;59.40
65038;DHT22;51605;47.040;15.294;2022-12-24T11:33:30;20.60;58.40
65038;DHT22;51605;47.040;15.294;2022-12-24T11:36:04;20.60;58.30
65038;DHT22;51605;47.040;15.294;2022-12-24T11:38:33;20.60;58.40
65038;DHT22;51605;47.040;15.294;2022-12-24T11:41:09;20.60;58.50
65038;DHT22;51605;47.040;15.294;2022-12-24T11:43:50;20.60;58.40
65038;DHT22;51605;47.040;15.294;2022-12-24T11:46:35;20.60;58.50
65038;DHT22;51605;47.040;15.294;2022-12-24T11:57:19;20.60;58.30
65038;DHT22;51605;47.040;15.294;2022-12-24T11:59:48;20.60;58.50
65038;DHT22;51605;47.040;15.294;2022-12-24T12:02:40;20.60;58.40
65038;DHT22;51605;47.040;15.294;2022-12-24T12:05:18;20.60;58.40
65038;DHT22;51605;47.040;15.294;2022-12-24T12:07:50;20.60;58.40
65038;DHT22;51605;47.040;15.294;2022-12-24T12:10:21;20.60;58.40
65038;DHT22;51605;47.040;15.294;2022-12-24T12:13:18;20.60;58.50
65038;DHT22;51605;47.040;15.294;2022-12-24T12:18:43;20.60;58.50
65038;DHT22;51605;47.040;15.294;2022-12-24T12:21:17;20.60;58.40
65038;DHT22;51605;47.040;15.294;2022-12-24T12:23:48;20.60;58.60
65038;DHT22;51605;47.040;15.294;2022-12-24T12:29:00;20.60;58.60
65038;DHT22;51605;47.040;15.294;2022-12-24T12:34:15;20.60;58.60
65038;DHT22;51605;47.040;15.294;2022-12-24T12:36:47;20.60;58.50
65038;DHT22;51605;47.040;15.294;2022-12-24T12:39:13;20.60;58.60
65038;DHT22;51605;47.040;15.294;2022-12-24T12:50:28;20.60;58.70
65038;DHT22;51605;47.040;15.294;2022-12-24T12:53:07;20.60;58.70
65038;DHT22;51605;47.040;15.294;2022-12-24T12:56:36;20.70;58.70
65038;DHT22;51605;47.040;15.294;2022-12-24T12:59:28;20.70;58.60
65038;DHT22;51605;47.040;15.294;2022-12-24T13:12:35;20.60;58.60
65038;DHT22;51605;47.040;15.294;2022-12-24T13:14:35;20.60;58.60
65038;DHT22;51605;47.040;15.294;2022-12-24T13:25:36;20.60;58.60
65038;DHT22;51605;47.040;15.294;2022-12-24T13:30:51;20.60;58.70
65038;DHT22;51605;47.040;15.294;2022-12-24T13:36:12;20.60;58.70
65038;DHT22;51605;47.040;15.294;2022-12-24T13:49:35;20.60;58.70
65038;DHT22;51605;47.040;15.294;2022-12-24T13:54:31;20.60;58.80
65038;DHT22;51605;47.040;15.294;2022-12-24T13:56:58;20.60;58.70
65038;DHT22;51605;47.040;15.294;2022-12-24T13:59:35;20.60;58.70
65038;DHT22;51605;47.040;15.294;2022-12-24T14:02:03;20.60;58.70
65038;DHT22;51605;47.040;15.294;2022-12-24T14:04:33;20.70;59.60
65038;DHT22;51605;47.040;15.294;2022-12-24T14:07:01;20.60;58.70
65038;DHT22;51605;47.040;15.294;2022-12-24T14:09:29;20.60;58.60
65038;DHT22;51605;47.040;15.294;2022-12-24T14:14:35;20.60;58.70
65038;DHT22;51605;47.040;15.294;2022-12-24T14:19:43;20.70;58.60
65038;DHT22;51605;47.040;15.294;2022-12-24T14:22:23;20.60;58.60
65038;DHT22;51605;47.040;15.294;2022-12-24T14:24:56;20.70;58.50
65038;DHT22;51605;47.040;15.294;2022-12-24T14:30:27;20.60;58.90
65038;DHT22;51605;47.040;15.294;2022-12-24T14:32:53;20.60;58.80
65038;DHT22;51605;47.040;15.294;2022-12-24T14:35:27;20.60;58.90
65038;DHT22;51605;47.040;15.294;2022-12-24T14:40:32;20.70;59.80
65038;DHT22;51605;47.040;15.294;2022-12-24T14:59:57;21.20;61.00
65038;DHT22;51605;47.040;15.294;2022-12-24T15:02:37;21.20;61.80
65038;DHT22;51605;47.040;15.294;2022-12-24T15:07:47;21.30;60.90
65038;DHT22;51605;47.040;15.294;2022-12-24T15:10:38;21.40;60.90
65038;DHT22;51605;47.040;15.294;2022-12-24T15:15:41;21.40;60.60
65038;DHT22;51605;47.040;15.294;2022-12-24T15:18:14;21.50;61.60
65038;DHT22;51605;47.040;15.294;2022-12-24T15:20:44;21.40;61.60
65038;DHT22;51605;47.040;15.294;2022-12-24T15:23:19;21.40;61.50
65038;DHT22;51605;47.040;15.294;2022-12-24T15:25:45;21.30;61.60
65038;DHT22;51605;47.040;15.294;2022-12-24T15:28:17;21.30;61.60
65038;DHT22;51605;47.040;15.294;2022-12-24T15:30:44;21.20;61.60
65038;DHT22;51605;47.040;15.294;2022-12-24T15:33:10;21.20;61.70
65038;DHT22;51605;47.040;15.294;2022-12-24T15:35:47;21.20;61.60
65038;DHT22;51605;47.040;15.294;2022-12-24T15:38:24;21.20;61.70
65038;DHT22;51605;47.040;15.294;2022-12-24T15:40:51;21.20;61.80
65038;DHT22;51605;47.040;15.294;2022-12-24T15:43:18;21.10;61.70
65038;DHT22;51605;47.040;15.294;2022-12-24T15:45:45;21.10;61.70
65038;DHT22;51605;47.040;15.294;2022-12-24T15:48:17;21.10;61.80
65038;DHT22;51605;47.040;15.294;2022-12-24T15:50:53;21.10;61.80
65038;DHT22;51605;47.040;15.294;2022-12-24T15:53:34;21.00;61.70
65038;DHT22;51605;47.040;15.294;2022-12-24T15:56:12;21.00;61.70
65038;DHT22;51605;47.040;15.294;2022-12-24T15:58:39;21.00;61.70
65038;DHT22;51605;47.040;15.294;2022-12-24T16:03:36;21.00;61.70
65038;DHT22;51605;47.040;15.294;2022-12-24T16:06:06;21.00;61.60
65038;DHT22;51605;47.040;15.294;2022-12-24T16:08:33;20.90;61.70
65038;DHT22;51605;47.040;15.294;2022-12-24T16:11:11;20.90;61.70
65038;DHT22;51605;47.040;15.294;2022-12-24T16:14:22;20.90;61.80
65038;DHT22;51605;47.040;15.294;2022-12-24T16:16:32;20.90;61.70
65038;DHT22;51605;47.040;15.294;2022-12-24T16:18:59;20.90;61.70
65038;DHT22;51605;47.040;15.294;2022-12-24T16:21:34;20.90;61.70
65038;DHT22;51605;47.040;15.294;2022-12-24T16:24:27;20.80;61.50
65038;DHT22;51605;47.040;15.294;2022-12-24T16:26:53;20.80;61.40
65038;DHT22;51605;47.040;15.294;2022-12-24T16:29:19;20.80;61.30
65038;DHT22;51605;47.040;15.294;2022-12-24T16:31:54;20.80;61.10
65038;DHT22;51605;47.040;15.294;2022-12-24T16:34:24;20.70;61.10
65038;DHT22;51605;47.040;15.294;2022-12-24T16:36:50;20.80;61.00
65038;DHT22;51605;47.040;15.294;2022-12-24T16:39:25;20.70;61.00
65038;DHT22;51605;47.040;15.294;2022-12-24T16:41:56;20.80;61.10
65038;DHT22;51605;47.040;15.294;2022-12-24T16:44:41;20.80;60.90
65038;DHT22;51605;47.040;15.294;2022-12-24T16:47:16;20.80;60.80
65038;DHT22;51605;47.040;15.294;2022-12-24T16:49:42;20.80;60.90
65038;DHT22;51605;47.040;15.294;2022-12-24T16:52:18;20.80;60.80
65038;DHT22;51605;47.040;15.294;2022-12-24T16:54:45;20.80;60.80
65038;DHT22;51605;47.040;15.294;2022-12-24T16:57:11;20.80;60.80
65038;DHT22;51605;47.040;15.294;2022-12-24T16:59:37;20.80;60.80
65038;DHT22;51605;47.040;15.294;2022-12-24T17:02:03;20.80;60.80
65038;DHT22;51605;47.040;15.294;2022-12-24T17:04:33;20.80;60.80
65038;DHT22;51605;47.040;15.294;2022-12-24T17:06:59;20.80;60.80
65038;DHT22;51605;47.040;15.294;2022-12-24T17:09:24;20.80;60.70
65038;DHT22;51605;47.040;15.294;2022-12-24T17:11:50;20.80;60.60
65038;DHT22;51605;47.040;15.294;2022-12-24T17:14:15;20.80;60.70
65038;DHT22;51605;47.040;15.294;2022-12-24T17:16:41;20.80;60.70
65038;DHT22;51605;47.040;15.294;2022-12-24T17:19:07;20.80;60.60
65038;DHT22;51605;47.040;15.294;2022-12-24T17:21:34;20.80;60.50
65038;DHT22;51605;47.040;15.294;2022-12-24T17:23:59;20.80;60.70
65038;DHT22;51605;47.040;15.294;2022-12-24T17:26:25;20.80;60.60
65038;DHT22;51605;47.040;15.294;2022-12-24T17:28:55;20.80;60.60
65038;DHT22;51605;47.040;15.294;2022-12-24T17:31:22;20.80;60.50
65038;DHT22;51605;47.040;15.294;2022-12-24T17:33:49;20.80;60.50
65038;DHT22;51605;47.040;15.294;2022-12-24T17:36:16;20.80;60.50
65038;DHT22;51605;47.040;15.294;2022-12-24T17:38:41;20.80;60.50
65038;DHT22;51605;47.040;15.294;2022-12-24T17:41:10;20.70;60.50
65038;DHT22;51605;47.040;15.294;2022-12-24T17:43:37;20.70;60.50
65038;DHT22;51605;47.040;15.294;2022-12-24T17:46:04;20.70;60.40